Time;durP1;ratioP1;P1;durP2;ratioP2;P2;SDS_P1;SDS_P2;PMS_P1;PMS_P2;Temp;Humidity;BMP_temperature;BMP_pressure;BME280_temperature;BME280_humidity;BME280_pressure;Samples;Min_cycle;Max_cycle;Signal;HPM_P1;HPM_P2
2022/01/04 00:04:28;;;;;;;2.42;1.00;;;;;;;20.32;50.84;95855.22;12631019;23;20538;-50
2022/01/04 00:09:51;;;;;;;1.58;1.00;;;;;;;20.31;50.97;95851.75;12630816;23;20015;-50
2022/01/04 00:15:11;;;;;;;2.42;1.20;;;;;;;20.30;50.72;95846.69;12610987;23;20387;-50
2022/01/04 00:20:30;;;;;;;5.53;1.20;;;;;;;20.29;50.75;95832.38;12610414;23;20022;-51
2022/01/04 00:25:50;;;;;;;2.50;0.80;;;;;;;20.27;50.79;95829.25;12610651;23;20022;-50
2022/01/04 00:31:10;;;;;;;2.85;0.80;;;;;;;20.26;50.69;95827.66;12610776;23;20019;-50
2022/01/04 00:36:29;;;;;;;1.90;1.15;;;;;;;20.26;50.67;95821.47;12610986;23;20328;-50
2022/01/04 00:41:48;;;;;;;1.23;0.80;;;;;;;20.24;50.70;95816.41;12630215;23;20351;-51
2022/01/04 00:47:09;;;;;;;1.83;1.10;;;;;;;20.23;50.66;95806.75;12610581;23;20018;-50
2022/01/04 00:52:29;;;;;;;4.03;1.20;;;;;;;20.21;50.64;95792.00;12610807;23;20355;-50
2022/01/04 00:57:48;;;;;;;1.35;0.90;;;;;;;20.22;50.54;95796.28;12610716;23;20023;-51
2022/01/04 01:03:09;;;;;;;2.20;1.08;;;;;;;20.20;50.37;95779.63;12610560;23;20018;-51
2022/01/04 01:08:29;;;;;;;2.17;0.95;;;;;;;20.19;50.55;95778.03;12609750;23;20223;-51
2022/01/04 01:13:48;;;;;;;1.42;0.90;;;;;;;20.17;50.49;95769.50;12610109;23;20018;-51
2022/01/04 01:19:09;;;;;;;1.65;0.90;;;;;;;20.15;50.38;95772.59;12629374;23;20060;-51
2022/01/04 01:24:28;;;;;;;1.52;0.90;;;;;;;20.14;50.35;95762.88;12610173;23;20822;-50
2022/01/04 01:29:48;;;;;;;1.98;1.10;;;;;;;20.13;50.56;95755.91;12609470;23;20018;-51
2022/01/04 01:35:08;;;;;;;1.48;0.90;;;;;;;20.10;50.40;95738.47;12610236;23;20342;-51
2022/01/04 01:40:27;;;;;;;1.77;0.90;;;;;;;20.12;50.43;95738.13;12609220;23;20085;-50
2022/01/04 01:45:47;;;;;;;2.15;0.93;;;;;;;20.09;50.41;95725.31;12609573;23;20061;-50
2022/01/04 01:51:07;;;;;;;1.63;0.82;;;;;;;20.09;50.42;95711.78;12609733;23;20347;-51
2022/01/04 01:56:29;;;;;;;1.67;1.00;;;;;;;20.07;50.43;95704.03;12609761;23;20041;-51
2022/01/04 02:01:50;;;;;;;1.75;0.90;;;;;;;20.07;50.63;95692.44;12610005;23;20348;-50
2022/01/04 02:07:10;;;;;;;1.48;0.82;;;;;;;20.04;50.47;95685.81;12609981;23;20014;-51
2022/01/04 02:12:40;;;;;;;1.70;0.70;;;;;;;20.04;50.49;95683.13;12587835;23;20152;-51
2022/01/04 02:18:00;;;;;;;0.85;0.65;;;;;;;20.02;50.35;95674.56;12608557;23;20045;-51
2022/01/04 02:23:19;;;;;;;0.80;0.70;;;;;;;20.02;50.40;95665.69;12609678;23;20093;-50
2022/01/04 02:28:39;;;;;;;0.90;0.68;;;;;;;20.00;50.35;95655.22;12610821;23;20025;-51
2022/01/04 02:33:58;;;;;;;1.73;0.70;;;;;;;20.00;50.33;95660.63;12592248;23;20476;-51
2022/01/04 02:39:18;;;;;;;1.15;0.80;;;;;;;19.98;50.28;95657.50;12613327;23;20069;-51
2022/01/04 02:44:37;;;;;;;1.35;0.80;;;;;;;19.96;50.36;95643.56;12613608;23;20029;-50
2022/01/04 02:49:56;;;;;;;0.70;0.60;;;;;;;19.94;50.22;95635.78;12611935;23;20014;-53
2022/01/04 02:55:17;;;;;;;1.08;0.68;;;;;;;19.93;50.47;95623.44;12632530;23;20025;-50
2022/01/04 03:00:37;;;;;;;1.92;0.88;;;;;;;19.92;50.30;95610.25;12612998;23;20708;-50
2022/01/04 03:05:57;;;;;;;0.65;0.65;;;;;;;19.91;50.26;95609.47;12612671;23;20026;-51
2022/01/04 03:11:17;;;;;;;0.82;0.60;;;;;;;19.91;50.36;95597.88;12612711;23;20029;-51
2022/01/04 03:16:36;;;;;;;1.60;0.73;;;;;;;19.89;50.25;95582.00;12631650;23;20455;-51
2022/01/04 03:21:56;;;;;;;0.95;0.52;;;;;;;19.88;50.32;95572.34;12632226;23;20014;-50
2022/01/04 03:27:15;;;;;;;1.13;0.85;;;;;;;19.86;50.29;95558.41;12611359;23;20018;-50
2022/01/04 03:32:35;;;;;;;0.80;0.73;;;;;;;19.86;50.29;95549.53;12611379;23;20026;-50
2022/01/04 03:37:55;;;;;;;2.58;0.77;;;;;;;19.85;50.32;95535.22;12612497;23;20018;-50
2022/01/04 03:43:14;;;;;;;0.85;0.50;;;;;;;19.83;50.26;95523.97;12631765;23;20025;-51
2022/01/04 03:48:34;;;;;;;0.85;0.55;;;;;;;19.83;50.22;95512.41;12631161;23;20065;-51
2022/01/04 03:53:54;;;;;;;0.88;0.60;;;;;;;19.80;50.29;95502.28;12612047;23;20018;-50
2022/01/04 03:59:14;;;;;;;0.60;0.50;;;;;;;19.81;50.27;95496.53;12611649;23;20352;-50
2022/01/04 04:04:33;;;;;;;0.50;0.50;;;;;;;19.79;50.19;95488.00;12611553;23;20018;-50
2022/01/04 04:09:53;;;;;;;0.57;0.57;;;;;;;19.78;50.23;95470.25;12611525;23;20631;-50
2022/01/04 04:15:13;;;;;;;0.98;0.70;;;;;;;19.76;50.19;95461.72;12633347;23;20018;-51
2022/01/04 04:20:33;;;;;;;0.98;0.60;;;;;;;19.75;50.08;95443.91;12630623;23;20024;-50
2022/01/04 04:25:52;;;;;;;0.70;0.50;;;;;;;19.74;50.30;95432.34;12630701;23;20022;-51
2022/01/04 04:31:12;;;;;;;1.05;0.52;;;;;;;19.74;50.24;95420.75;12610229;23;20050;-50
2022/01/04 04:36:32;;;;;;;0.77;0.50;;;;;;;19.73;50.09;95408.38;12610794;23;20016;-51
2022/01/04 04:41:52;;;;;;;0.50;0.50;;;;;;;19.71;50.05;95394.41;12630450;23;20078;-50
2022/01/04 04:47:12;;;;;;;0.75;0.60;;;;;;;19.71;50.20;95389.00;12630354;23;20021;-51
2022/01/04 04:52:32;;;;;;;0.70;0.60;;;;;;;19.68;50.22;95379.72;12629886;23;20018;-50
2022/01/04 04:57:52;;;;;;;0.77;0.60;;;;;;;19.68;50.05;95376.19;12630117;23;20026;-51
2022/01/04 05:03:11;;;;;;;0.70;0.47;;;;;;;19.67;50.29;95356.50;12629968;23;20443;-50
2022/01/04 05:08:30;;;;;;;0.43;0.43;;;;;;;19.66;50.12;95365.78;12610169;23;20021;-50
2022/01/04 05:13:49;;;;;;;0.85;0.50;;;;;;;19.64;50.13;95348.34;12629595;23;20022;-50
2022/01/04 05:19:09;;;;;;;0.52;0.45;;;;;;;19.63;50.15;95338.69;12629466;23;20022;-51
2022/01/04 05:24:29;;;;;;;0.60;0.50;;;;;;;19.62;50.18;95321.72;12609965;23;20651;-51
2022/01/04 05:29:48;;;;;;;0.60;0.50;;;;;;;19.63;50.15;95319.78;12610011;23;20018;-51
2022/01/04 05:35:08;;;;;;;0.82;0.40;;;;;;;19.63;50.21;95308.97;12609850;23;20022;-51
2022/01/04 05:40:27;;;;;;;0.98;0.70;;;;;;;19.63;49.99;95293.53;12609654;23;20020;-50
2022/01/04 05:45:47;;;;;;;1.88;0.63;;;;;;;19.64;50.06;95291.63;12628287;23;20018;-50
2022/01/04 05:51:06;;;;;;;1.65;0.57;;;;;;;19.66;50.20;95279.31;12608346;23;20044;-51
2022/01/04 05:56:26;;;;;;;0.30;0.30;;;;;;;19.67;50.20;95275.47;12611923;23;20081;-50
2022/01/04 06:01:46;;;;;;;1.27;0.50;;;;;;;19.69;50.24;95273.19;12612481;23;20074;-50
2022/01/04 06:07:05;;;;;;;0.77;0.40;;;;;;;19.69;50.20;95262.38;12616188;23;20018;-50
2022/01/04 06:17:49;;;;;;;1.20;0.40;;;;;;;19.75;50.50;95233.16;12611769;23;20509;-50
2022/01/04 06:23:09;;;;;;;0.65;0.50;;;;;;;19.78;50.47;95226.25;12632308;23;20022;-50
2022/01/04 06:28:28;;;;;;;1.80;0.60;;;;;;;19.81;50.35;95220.13;12612103;23;20371;-50
2022/01/04 06:33:48;;;;;;;1.02;0.50;;;;;;;19.82;50.27;95200.84;12612287;23;20545;-50
2022/01/04 06:39:07;;;;;;;0.60;0.47;;;;;;;19.85;50.26;95189.28;12632749;23;20022;-51
2022/01/04 06:44:27;;;;;;;0.52;0.50;;;;;;;19.87;50.04;95187.00;12612368;23;20626;-50
2022/01/04 06:49:46;;;;;;;0.73;0.50;;;;;;;19.88;50.10;95172.38;12610234;23;20015;-50
2022/01/04 06:55:06;;;;;;;0.50;0.50;;;;;;;19.92;50.04;95169.72;12631112;23;20442;-50
2022/01/04 07:00:25;;;;;;;0.57;0.50;;;;;;;19.93;50.06;95163.94;12608751;23;20037;-50
2022/01/04 07:05:45;;;;;;;1.30;0.50;;;;;;;19.98;50.08;95159.38;12608684;23;20018;-50
2022/01/04 07:11:05;;;;;;;1.33;0.70;;;;;;;19.99;50.01;95150.88;12608891;23;20019;-50
2022/01/04 07:16:24;;;;;;;0.40;0.40;;;;;;;20.01;50.00;95147.81;12632053;23;20018;-50
2022/01/04 07:21:44;;;;;;;1.17;0.50;;;;;;;20.03;49.96;95150.91;12631692;23;20015;-50
2022/01/04 07:27:05;;;;;;;1.23;0.40;;;;;;;20.05;49.94;95152.13;12611979;23;20018;-50
2022/01/04 07:32:24;;;;;;;0.70;0.50;;;;;;;20.08;49.96;95148.69;12610816;23;20022;-50
2022/01/04 07:37:44;;;;;;;1.90;0.50;;;;;;;20.11;49.86;95150.66;12607428;23;20019;-50
2022/01/04 07:43:04;;;;;;;0.88;0.50;;;;;;;20.15;49.75;95142.59;12609095;23;20018;-53
2022/01/04 07:48:23;;;;;;;1.48;0.50;;;;;;;20.16;49.43;95130.63;12611286;23;20018;-50
2022/01/04 07:53:43;;;;;;;0.57;0.50;;;;;;;20.19;49.46;95127.19;12611368;23;20022;-50
2022/01/04 07:59:03;;;;;;;0.40;0.40;;;;;;;20.22;49.43;95121.03;12611152;23;20018;-50
2022/01/04 08:04:22;;;;;;;0.63;0.30;;;;;;;20.24;49.38;95113.34;12630758;23;20029;-50
2022/01/04 08:09:41;;;;;;;0.50;0.50;;;;;;;20.28;49.36;95111.44;12610338;23;20046;-50
2022/01/04 08:15:01;;;;;;;0.40;0.40;;;;;;;20.32;49.21;95097.97;12610073;23;20022;-50
2022/01/04 08:20:20;;;;;;;0.70;0.40;;;;;;;20.33;49.26;95086.78;12609728;23;20458;-51
2022/01/04 08:25:40;;;;;;;0.45;0.40;;;;;;;20.35;49.30;95087.19;12609283;23;20029;-50
2022/01/04 08:30:59;;;;;;;1.75;0.40;;;;;;;20.39;49.50;95081.81;12609874;23;20029;-50
2022/01/04 08:36:20;;;;;;;0.30;0.30;;;;;;;20.43;49.51;95071.03;12609706;23;20019;-50
2022/01/04 08:41:42;;;;;;;0.47;0.47;;;;;;;20.45;49.47;95058.69;12609866;23;20022;-50
2022/01/04 08:47:01;;;;;;;0.60;0.40;;;;;;;20.49;49.40;95061.44;12610086;23;20018;-51
2022/01/04 08:52:21;;;;;;;0.70;0.40;;;;;;;20.52;49.31;95036.34;12608761;23;20053;-51
2022/01/04 08:57:40;;;;;;;0.50;0.40;;;;;;;20.55;49.37;95035.59;12606150;23;20336;-50
2022/01/04 09:03:00;;;;;;;0.52;0.52;;;;;;;20.58;49.43;95034.88;12605828;23;20019;-51
2022/01/04 09:08:20;;;;;;;0.68;0.38;;;;;;;20.61;49.38;95039.53;12610032;23;20391;-54
2022/01/04 09:13:43;;;;;;;1.30;0.50;;;;;;;20.63;49.24;95039.19;12610110;23;20022;-51
2022/01/04 09:19:02;;;;;;;1.63;0.45;;;;;;;20.66;49.25;95031.09;12609476;23;20018;-51
2022/01/04 09:24:23;;;;;;;2.15;0.60;;;;;;;20.68;49.21;95031.50;12628823;23;20097;-50
2022/01/04 09:29:42;;;;;;;0.85;0.50;;;;;;;20.69;48.99;95027.63;12608616;23;20094;-51
2022/01/04 09:35:03;;;;;;;1.17;0.32;;;;;;;20.71;49.11;95022.63;12605739;23;20076;-51
2022/01/04 09:40:23;;;;;;;2.50;0.60;;;;;;;20.70;49.17;95015.66;12608223;23;20026;-50
2022/01/04 09:45:43;;;;;;;2.25;0.50;;;;;;;-146.19;100.00;65364.44;12607714;23;20022;-51
2022/01/04 09:51:03;;;;;;;1.60;0.38;;;;;;;-146.19;100.00;65364.44;12608398;23;20022;-52
2022/01/04 09:56:22;;;;;;;2.97;0.50;;;;;;;-146.19;100.00;65364.44;12586992;23;20617;-51
2022/01/04 10:01:45;;;;;;;0.40;0.40;;;;;;;-146.19;100.00;65364.44;12607246;23;20319;-50
2022/01/04 10:07:06;;;;;;;0.52;0.40;;;;;;;-146.19;100.00;65364.44;12626537;23;20477;-50
2022/01/04 10:12:26;;;;;;;0.60;0.40;;;;;;;-146.19;100.00;65364.44;12606967;23;20022;-50
2022/01/04 10:17:45;;;;;;;1.30;0.40;;;;;;;-146.19;100.00;65364.44;12607761;23;20026;-51
2022/01/04 10:23:16;;;;;;;2.03;0.57;;;;;;;20.70;49.17;95015.66;12608983;23;20019;-50
2022/01/04 10:28:41;;;;;;;3.13;0.50;;;;;;;20.70;49.17;95015.66;12608659;23;20019;-50
2022/01/04 10:34:01;;;;;;;0.88;0.40;;;;;;;20.72;48.83;94902.41;12586907;23;20312;-50
2022/01/04 10:39:20;;;;;;;0.65;0.30;;;;;;;20.71;48.79;94892.72;12608788;23;20025;-49
2022/01/04 10:44:42;;;;;;;0.82;0.50;;;;;;;20.72;48.73;94886.19;12628376;23;20021;-50
2022/01/04 10:50:02;;;;;;;1.20;0.50;;;;;;;20.71;48.66;94873.78;12588924;23;20022;-51
2022/01/04 10:55:21;;;;;;;1.00;0.50;;;;;;;20.72;48.68;94863.78;12611973;23;20069;-50
2022/01/04 11:00:41;;;;;;;1.08;0.50;;;;;;;20.73;48.49;94862.59;12606743;23;20019;-49
2022/01/04 11:06:29;;;;;;;1.17;0.50;;;;;;;20.72;48.35;94848.31;12590047;23;20018;-50
2022/01/04 11:11:49;;;;;;;0.50;0.50;;;;;;;20.72;48.33;94839.41;12605512;23;20049;-52
2022/01/04 11:17:09;;;;;;;0.65;0.40;;;;;;;20.73;48.44;94838.25;12630204;23;20474;-50
2022/01/04 11:22:29;;;;;;;0.55;0.50;;;;;;;20.71;48.37;94827.78;12630485;23;20041;-51
2022/01/04 11:27:49;;;;;;;0.98;0.50;;;;;;;20.68;48.37;94809.63;12629915;23;20018;-50
2022/01/04 11:33:27;;;;;;;0.90;0.50;;;;;;;20.70;48.07;94801.13;12610989;23;20018;-51
2022/01/04 11:38:48;;;;;;;1.23;0.40;;;;;;;20.70;48.29;94771.38;12630576;23;20459;-50
2022/01/04 11:44:20;;;;;;;0.60;0.40;;;;;;;20.68;48.16;94771.75;12589724;23;20041;-50
2022/01/04 11:50:04;;;;;;;2.72;0.50;;;;;;;20.65;48.20;94753.56;12609886;23;20438;-49
2022/01/04 11:55:30;;;;;;;0.52;0.50;;;;;;;20.65;48.34;94731.91;12630306;23;20018;-50
2022/01/04 12:01:00;;;;;;;0.50;0.50;;;;;;;20.63;48.42;94728.06;12609740;23;20022;-52
2022/01/04 12:06:21;;;;;;;0.63;0.50;;;;;;;20.63;48.48;94728.06;12588857;23;20030;-50
2022/01/04 12:11:41;;;;;;;2.10;0.60;;;;;;;20.62;48.49;94718.38;12629437;23;20029;-50
2022/01/04 12:17:07;;;;;;;0.68;0.60;;;;;;;20.61;48.53;94719.53;12609184;23;20019;-50
2022/01/04 12:22:32;;;;;;;2.88;0.60;;;;;;;20.61;48.63;94708.72;12629900;23;20018;-49
2022/01/04 12:28:13;;;;;;;1.55;0.40;;;;;;;20.60;48.74;94702.53;12629367;23;20019;-50
2022/01/04 12:33:35;;;;;;;0.68;0.40;;;;;;;20.59;48.82;94698.28;12607693;23;20028;-50
2022/01/04 12:38:56;;;;;;;3.38;0.60;;;;;;;20.59;48.94;94678.53;12605700;23;20014;-52
2022/01/04 12:44:25;;;;;;;0.70;0.50;;;;;;;20.59;48.89;94673.13;12628209;23;20018;-54
2022/01/04 12:49:45;;;;;;;1.25;0.50;;;;;;;20.57;49.13;94670.03;12608057;23;20026;-52
2022/01/04 12:55:09;;;;;;;1.73;0.30;;;;;;;20.57;49.28;94664.63;12629425;23;20015;-56
2022/01/04 13:00:28;;;;;;;1.35;0.50;;;;;;;20.57;49.31;94659.97;12608977;23;20046;-55
2022/01/04 13:06:04;;;;;;;0.35;0.35;;;;;;;20.55;49.36;94644.13;12609938;23;20351;-52
2022/01/04 13:11:24;;;;;;;1.92;0.40;;;;;;;20.54;49.37;94634.47;12609130;23;20030;-56
2022/01/04 13:16:43;;;;;;;1.17;0.55;;;;;;;20.54;49.25;94614.75;12607887;23;20482;-57
2022/01/04 13:22:10;;;;;;;3.03;0.50;;;;;;;20.53;49.34;94605.09;12609429;23;20022;-55
2022/01/04 13:27:42;;;;;;;0.70;0.43;;;;;;;20.52;49.40;94598.94;12628622;23;20022;-55
2022/01/04 13:33:03;;;;;;;0.82;0.47;;;;;;;20.50;49.29;94593.13;12628860;23;20085;-56
2022/01/04 13:38:24;;;;;;;1.13;0.45;;;;;;;20.51;49.26;94580.38;12609399;23;20022;-51
2022/01/04 13:43:46;;;;;;;2.17;0.60;;;;;;;20.48;49.17;94565.69;12623559;23;20093;-50
2022/01/04 13:49:06;;;;;;;1.55;0.80;;;;;;;20.48;49.40;94568.41;12628142;23;20018;-50
2022/01/04 13:54:30;;;;;;;3.17;0.50;;;;;;;20.47;49.36;94568.78;12609426;23;20019;-50
2022/01/04 13:59:50;;;;;;;1.95;0.52;;;;;;;20.44;49.56;94558.72;12585675;23;20465;-52
2022/01/04 14:05:14;;;;;;;2.05;0.82;;;;;;;20.45;49.50;94560.28;12607520;23;20022;-51
2022/01/04 14:10:55;;;;;;;1.13;0.60;;;;;;;20.44;49.78;94561.41;12608834;23;20014;-52
2022/01/04 14:16:15;;;;;;;1.55;0.60;;;;;;;20.43;49.76;94559.88;12607463;23;20018;-53
2022/01/04 14:21:41;;;;;;;3.67;0.70;;;;;;;20.42;49.85;94547.50;12608240;23;20042;-50
2022/01/04 14:27:09;;;;;;;1.17;0.65;;;;;;;20.41;49.86;94545.97;12611391;23;20018;-50
2022/01/04 14:32:33;;;;;;;0.50;0.40;;;;;;;20.39;49.90;94551.00;12611958;23;20418;-50
2022/01/04 14:37:55;;;;;;;2.05;0.55;;;;;;;20.39;49.90;94540.19;12611873;23;20090;-51
2022/01/04 14:43:14;;;;;;;0.55;0.50;;;;;;;20.37;49.84;94531.69;12630534;23;20022;-50
2022/01/04 14:48:33;;;;;;;1.15;0.50;;;;;;;20.34;49.87;94525.84;12612208;23;20021;-52
2022/01/04 14:53:53;;;;;;;0.55;0.55;;;;;;;20.33;50.03;94513.50;12607290;23;20406;-50
2022/01/04 14:59:12;;;;;;;0.75;0.70;;;;;;;20.33;49.78;94527.03;12630677;23;20462;-53
2022/01/04 15:04:32;;;;;;;1.38;0.60;;;;;;;20.31;49.87;94512.34;12630901;23;20014;-52
2022/01/04 15:09:52;;;;;;;1.17;0.50;;;;;;;20.30;49.81;94521.59;12610800;23;20102;-51
2022/01/04 15:15:11;;;;;;;0.55;0.43;;;;;;;20.29;49.86;94511.97;12608853;23;20045;-52
2022/01/04 15:20:33;;;;;;;1.23;0.85;;;;;;;20.23;47.75;94511.56;12630361;23;20022;-51
2022/01/04 15:25:53;;;;;;;0.85;0.70;;;;;;;20.21;48.64;94504.97;12610495;23;20029;-51
2022/01/04 15:31:13;;;;;;;2.30;0.77;;;;;;;20.21;49.08;94508.47;12629780;23;20019;-55
2022/01/04 15:36:33;;;;;;;1.15;0.80;;;;;;;20.22;49.44;94514.66;12607920;23;20025;-50
2022/01/04 15:41:54;;;;;;;1.63;0.70;;;;;;;20.22;49.87;94510.00;12608669;23;20484;-51
2022/01/04 15:47:13;;;;;;;2.42;0.90;;;;;;;20.23;50.02;94505.38;12610552;23;20018;-51
2022/01/04 15:52:33;;;;;;;1.45;0.80;;;;;;;20.22;50.08;94517.34;12629582;23;20509;-53
2022/01/04 15:57:53;;;;;;;2.80;0.77;;;;;;;20.21;50.27;94504.97;12627626;23;20023;-53
2022/01/04 16:03:13;;;;;;;1.70;0.70;;;;;;;20.21;50.73;94518.50;12610430;23;20018;-52
2022/01/04 16:08:33;;;;;;;4.53;1.00;;;;;;;20.21;50.85;94524.69;12610174;23;20018;-51
2022/01/04 16:13:52;;;;;;;2.40;1.50;;;;;;;20.21;51.09;94524.69;12609522;23;20022;-51
2022/01/04 16:24:53;;;;;;;4.80;1.25;;;;;;;20.21;51.56;94526.59;12609841;23;20563;-50
2022/01/04 16:30:13;;;;;;;2.00;1.10;;;;;;;20.20;51.40;94539.34;12588005;23;20470;-51
2022/01/04 16:35:33;;;;;;;1.50;1.10;;;;;;;20.18;51.45;94533.56;12610101;23;20023;-50
2022/01/04 16:40:52;;;;;;;3.50;1.30;;;;;;;20.17;49.90;94542.03;12629720;23;20483;-49
2022/01/04 16:46:12;;;;;;;4.22;1.15;;;;;;;20.14;51.00;94543.59;12609313;23;20018;-49
2022/01/04 16:51:32;;;;;;;2.35;1.10;;;;;;;20.12;51.24;94576.41;12609797;23;20019;-50
2022/01/04 16:56:52;;;;;;;2.28;1.00;;;;;;;20.13;51.82;94596.09;12609967;23;20014;-50
2022/01/04 17:02:11;;;;;;;3.75;1.52;;;;;;;20.13;52.48;94598.78;12608857;23;20320;-51
2022/01/04 17:07:31;;;;;;;4.57;1.17;;;;;;;20.12;52.50;94635.09;12609519;23;20022;-50
2022/01/04 17:15:33;;;;;;;2.10;1.10;;;;;;;20.11;52.53;94658.66;12628080;23;20032;-51
2022/01/04 17:18:30;;;;;;;2.33;1.10;;;;;;;20.10;51.60;94669.84;12608134;23;20030;-53
2022/01/04 17:23:50;;;;;;;2.78;1.08;;;;;;;20.10;51.92;94676.03;12608818;23;20225;-55
2022/01/04 17:29:10;;;;;;;2.70;1.00;;;;;;;20.08;51.60;94689.16;12609104;23;20028;-55
2022/01/04 17:34:30;;;;;;;1.50;0.90;;;;;;;20.07;51.54;94709.22;12609625;23;20027;-51
2022/01/04 17:39:50;;;;;;;1.05;0.80;;;;;;;20.05;51.24;94692.63;12609334;23;20606;-51
2022/01/04 17:45:10;;;;;;;1.25;0.95;;;;;;;20.06;51.46;94723.13;12607631;23;20098;-51
2022/01/04 17:50:29;;;;;;;1.45;0.88;;;;;;;20.03;51.55;94730.06;12606940;23;20025;-57
2022/01/04 17:55:49;;;;;;;1.55;0.90;;;;;;;20.02;51.47;94741.25;12627133;23;20118;-61
2022/01/04 18:01:12;;;;;;;2.15;0.90;;;;;;;20.02;51.42;94739.31;12633680;23;20015;-60
2022/01/04 18:06:32;;;;;;;2.60;1.17;;;;;;;20.01;51.58;94758.59;12633762;23;20463;-59
2022/01/04 18:11:53;;;;;;;1.52;1.10;;;;;;;20.00;51.69;94784.09;12613687;23;20025;-59
2022/01/04 18:17:14;;;;;;;2.67;1.00;;;;;;;19.99;51.60;94793.34;12614662;23;20120;-57
2022/01/04 18:22:35;;;;;;;4.30;0.90;;;;;;;19.98;51.65;94800.69;12615327;23;20018;-58
2022/01/04 18:27:54;;;;;;;2.38;0.85;;;;;;;19.97;51.56;94806.44;12613624;23;20386;-59
2022/01/04 18:33:14;;;;;;;1.75;1.02;;;;;;;19.95;51.78;94799.50;12614922;23;20145;-50
2022/01/04 18:38:34;;;;;;;0.98;0.90;;;;;;;19.95;51.32;94799.50;12634569;23;20030;-50
2022/01/04 18:43:53;;;;;;;0.82;0.70;;;;;;;19.94;51.20;94822.25;12614707;23;20018;-52
2022/01/04 18:49:13;;;;;;;0.95;0.88;;;;;;;19.93;51.17;94847.75;12613883;23;20443;-53
2022/01/04 18:54:33;;;;;;;1.10;0.80;;;;;;;19.91;50.97;94831.09;12614207;23;20023;-54
2022/01/04 18:59:52;;;;;;;1.08;0.82;;;;;;;19.90;51.21;94853.88;12632129;23;20032;-51
2022/01/04 19:05:12;;;;;;;1.27;0.82;;;;;;;19.90;51.04;94850.41;12612598;23;20390;-50
2022/01/04 19:10:32;;;;;;;2.38;0.90;;;;;;;19.90;51.08;94866.63;12609901;23;20014;-51
2022/01/04 19:15:53;;;;;;;1.27;0.85;;;;;;;19.88;51.26;94875.09;12629677;23;20018;-49
2022/01/04 19:21:13;;;;;;;0.75;0.70;;;;;;;19.88;51.22;94895.94;12611823;23;20025;-50
2022/01/04 19:26:33;;;;;;;1.40;0.90;;;;;;;19.87;51.08;94911.38;12608475;23;20018;-48
2022/01/04 19:32:01;;;;;;;1.90;0.90;;;;;;;19.86;51.24;94928.75;12629931;23;20049;-47
2022/01/04 19:37:21;;;;;;;1.77;1.00;;;;;;;19.86;51.34;94927.97;12609424;23;20014;-48
2022/01/04 19:42:40;;;;;;;1.83;1.10;;;;;;;19.85;51.32;94937.22;12628797;23;20506;-48
2022/01/04 19:48:00;;;;;;;2.75;1.20;;;;;;;19.84;51.37;94944.56;12610545;23;20635;-53
2022/01/04 19:53:20;;;;;;;2.70;1.00;;;;;;;19.83;51.36;94932.19;12629426;23;20018;-51
2022/01/04 19:58:40;;;;;;;2.03;1.10;;;;;;;19.81;51.28;94956.09;12609004;23;20158;-52
2022/01/04 20:03:59;;;;;;;2.13;1.02;;;;;;;19.79;51.15;94969.19;12629129;23;20025;-57
2022/01/04 20:09:19;;;;;;;1.35;0.90;;;;;;;19.80;51.14;94983.47;12628515;23;20025;-50
2022/01/04 20:14:38;;;;;;;3.85;1.00;;;;;;;19.78;51.09;94977.66;12629799;23;20451;-50
2022/01/04 20:19:59;;;;;;;3.40;1.13;;;;;;;19.77;50.88;94984.22;12608948;23;20406;-49
2022/01/04 20:25:19;;;;;;;1.65;1.02;;;;;;;19.74;49.48;94986.53;12586289;23;20018;-51
2022/01/04 20:30:38;;;;;;;3.47;1.15;;;;;;;19.74;50.22;94983.06;12607764;23;20025;-51
2022/01/04 20:35:58;;;;;;;3.05;1.65;;;;;;;19.74;50.46;94977.66;12628272;23;20023;-51
2022/01/04 20:41:18;;;;;;;3.85;1.10;;;;;;;19.75;51.10;94976.50;12628727;23;20098;-50
2022/01/04 20:46:38;;;;;;;2.95;1.40;;;;;;;19.73;51.10;94967.97;12607935;23;20026;-51
2022/01/04 20:51:58;;;;;;;1.92;1.20;;;;;;;19.72;51.37;94991.53;12609955;23;20022;-51
2022/01/04 20:57:18;;;;;;;1.80;1.10;;;;;;;19.72;51.21;94979.94;12610000;23;20157;-51
2022/01/04 21:02:41;;;;;;;2.28;1.08;;;;;;;19.71;51.61;94972.94;12608992;23;20023;-51
2022/01/04 21:08:00;;;;;;;2.70;1.27;;;;;;;19.71;52.04;94991.84;12628886;23;20022;-51
2022/01/04 21:13:20;;;;;;;1.50;1.30;;;;;;;19.70;52.19;94999.19;12608818;23;20022;-50
2022/01/04 21:18:39;;;;;;;3.58;1.40;;;;;;;19.70;52.30;95001.13;12608363;23;20083;-51
2022/01/04 21:23:59;;;;;;;2.45;1.42;;;;;;;19.69;52.37;95010.34;12608918;23;20085;-50
2022/01/04 21:29:20;;;;;;;1.52;0.90;;;;;;;19.68;52.63;95044.69;12609742;23;20093;-51
2022/01/04 21:34:40;;;;;;;2.03;1.10;;;;;;;19.69;52.62;95037.38;12629066;23;20494;-49
2022/01/04 21:39:59;;;;;;;1.50;1.00;;;;;;;19.67;52.63;95048.53;12605860;23;20019;-50
2022/01/04 21:45:18;;;;;;;1.90;1.17;;;;;;;19.66;52.66;95062.41;12625823;23;20015;-50
2022/01/04 21:50:38;;;;;;;2.72;1.20;;;;;;;19.66;52.87;95059.69;12625968;23;20014;-50
2022/01/04 21:55:58;;;;;;;2.22;1.10;;;;;;;19.66;52.91;95081.31;12584295;23;20037;-49
2022/01/04 22:01:18;;;;;;;2.72;0.93;;;;;;;19.64;52.98;95081.69;12605853;23;20029;-50
2022/01/04 22:06:37;;;;;;;1.67;1.00;;;;;;;19.64;52.68;95080.91;12602240;23;20018;-48
2022/01/04 22:11:57;;;;;;;2.00;1.08;;;;;;;19.64;52.55;95086.31;12606121;23;20131;-51
2022/01/04 22:17:17;;;;;;;2.38;1.17;;;;;;;19.61;52.47;95079.72;12606465;23;20358;-49
2022/01/04 22:22:37;;;;;;;1.85;0.90;;;;;;;19.60;52.36;95077.38;12607702;23;20413;-48
2022/01/04 22:27:57;;;;;;;3.00;1.15;;;;;;;19.59;52.46;95090.13;12606784;23;20029;-49
2022/01/04 22:33:16;;;;;;;1.55;0.93;;;;;;;19.58;52.33;95077.75;12607375;23;20018;-49
2022/01/04 22:38:36;;;;;;;2.35;1.08;;;;;;;19.56;52.39;95090.84;12627343;23;20022;-49
2022/01/04 22:43:55;;;;;;;2.03;0.90;;;;;;;19.55;52.29;95089.28;12609564;23;20048;-48
2022/01/04 22:49:15;;;;;;;1.73;0.90;;;;;;;19.54;52.29;95099.31;12632550;23;20018;-49
2022/01/04 22:54:34;;;;;;;1.23;0.80;;;;;;;19.52;52.26;95080.00;12632881;23;20020;-48
2022/01/04 22:59:55;;;;;;;2.08;0.90;;;;;;;19.51;52.22;95105.44;12613223;23;20022;-48
2022/01/04 23:05:15;;;;;;;1.88;1.20;;;;;;;19.50;52.17;95076.88;12612975;23;20019;-48
2022/01/04 23:10:35;;;;;;;1.55;0.93;;;;;;;19.50;52.14;95092.28;12612326;23;20447;-48
2022/01/04 23:15:54;;;;;;;2.38;1.02;;;;;;;19.50;52.12;95098.50;12612013;23;20030;-49
2022/01/04 23:21:14;;;;;;;1.85;0.90;;;;;;;19.47;52.19;95093.81;12632147;23;20443;-49
2022/01/04 23:26:34;;;;;;;3.00;1.00;;;;;;;19.46;52.11;95086.06;12612643;23;20018;-48
2022/01/04 23:31:54;;;;;;;1.73;0.95;;;;;;;19.45;52.10;95098.81;12612515;23;20025;-49
2022/01/04 23:37:14;;;;;;;2.33;0.80;;;;;;;19.45;52.02;95096.09;12631816;23;20026;-48
2022/01/04 23:42:34;;;;;;;1.23;0.80;;;;;;;19.43;52.06;95084.88;12611733;23;20029;-48
2022/01/04 23:47:53;;;;;;;1.92;0.90;;;;;;;19.42;51.97;95064.41;12611334;23;20025;-49
2022/01/04 23:53:13;;;;;;;1.80;0.80;;;;;;;19.41;52.14;95052.06;12631315;23;20427;-48
2022/01/04 23:58:32;;;;;;;1.25;0.80;;;;;;;19.41;52.05;95064.78;12611766;23;20399;-49
